Aérodrome :
LOGIN :

S'inscrire | Disclaimer

   EN    FR    IT 

 










Légende :    VFR   VFR Marginal   IFR   IFR Intensif   IFR Très Intensif
Visi : 
Plafond : 
>= 8 km
>= 3000ft
5 à 8 km
1000 à 3000 ft
1500m à 5 km
500 à 1000 ft
800 à 1500m
200 à 500 ft
< 800m
< 200 ft
Symboles :   Orages  Brouillard  Fortes neiges  Fortes précipitations  Vent > 20 kt
SIGMETs :   Divers  Orages  Givrage  Turbulence  Onde Orograph.  Cendres Volcan.






- Altitude de l'aérodrome : 436 ft
- Code IATA : ANG


LFBU - Angoulême Brie Champniers

DERNIER METAR :
  • 251100Z AUTO 16004KT 110V210 9999 SCT005 BKN030 BKN036 12/11 Q1008 TEMPO 4000 RA BKN014 BKN025

METARs EXPIRÉS :
  • 251030Z AUTO 19004KT 130V290 9999 FEW006 SCT035 OVC072 12/11 Q1008 TEMPO 4000 RA BKN014 BKN025
  • 251000Z AUTO 08005KT 040V120 9999 -RA ///TCU 11/11 Q1007 TEMPO 4000 RA BKN014 BKN025
  • 250930Z AUTO 32010KT 290V020 9000 -RA SCT006/// BKN011/// BKN033/// ///TCU 11/10 Q1007 TEMPO 4000 RA BKN014 BKN025 BECMG 17010KT
  • 250900Z AUTO 30003KT 270V340 8000 RA BKN014/// OVC023/// ///TCU 12/11 Q1008 TEMPO 4000 RA BKN014 BKN025 BECMG 17010KT
  • 250830Z AUTO 19012KT 160V220 9000 3800 +RA BKN024/// OVC031/// ///TCU 13/10 Q1007 TEMPO 4000 RA BKN014 BKN025

TAF TAF LFBU
Valide du 25 à 06h jusqu'au 26 à 06h UTC


250500Z 2506/2606 17010KT 9999 BKN045
TEMPO 2508/2513 4000 RA BKN014 BKN025
BECMG 2513/2515 25010KT 9999 NSW
TEMPO 2516/2606 3000 SHRA BKN014TCU FEW025CB



MET'MAP, la Météo Aéronautique d'un coup d'oeil ! - Copyright ORBIFLY Décembre 2007 - Disclaimer

ORBIFLY MET'MAP TEAM :

Programmation & Développement : Alexandra Zaïnal
Sur une idée originale de : Baudouin d'Aumeries
Assistance à la programmation : Marc-Olivier Méhu
Soutien technique & logistique : Manuel Goepfert

Contact : metmap@orbifly.com




SOURCES & CREDITS :

   NOAA